Time;durP1;ratioP1;P1;durP2;ratioP2;P2;SDS_P1;SDS_P2;PMS_P1;PMS_P2;Temp;Humidity;BMP_temperature;BMP_pressure;BME280_temperature;BME280_humidity;BME280_pressure;Samples;Min_cycle;Max_cycle;Signal;HPM_P1;HPM_P2
2021/07/25 00:00:15;;;;;;;;;;;;;;;18.94;83.41;100782.69;5071435;28;20406;-52
2021/07/25 00:02:42;;;;;;;;;;;;;;;18.91;83.48;100785.69;5067915;28;19920;-53
2021/07/25 00:05:09;;;;;;;;;;;;;;;18.95;83.51;100773.72;5071048;28;19952;-52
2021/07/25 00:07:36;;;;;;;;;;;;;;;18.90;83.45;100776.84;5071948;28;20357;-53
2021/07/25 00:10:03;;;;;;;;;;;;;;;18.81;83.83;100775.06;5071094;28;19927;-52
2021/07/25 00:12:30;;;;;;;;;;;;;;;18.78;84.17;100772.72;5070062;28;19924;-52
2021/07/25 00:14:57;;;;;;;;;;;;;;;18.81;83.96;100766.25;5072151;28;19973;-52
2021/07/25 00:17:23;;;;;;;;;;;;;;;18.76;84.20;100764.06;5071736;28;19924;-55
2021/07/25 00:19:50;;;;;;;;;;;;;;;18.81;84.12;100764.41;5072042;28;20325;-53
2021/07/25 00:22:16;;;;;;;;;;;;;;;18.78;84.18;100756.75;5072896;28;19966;-49
2021/07/25 00:24:50;;;;;;;;;;;;;;;18.72;84.05;100752.88;5053434;28;19924;-51
2021/07/25 00:27:19;;;;;;;;;;;;;;;18.75;84.42;100749.06;5070222;28;19970;-50
2021/07/25 00:29:45;;;;;;;;;;;;;;;18.71;84.50;100748.53;5072621;28;19920;-52
2021/07/25 00:32:12;;;;;;;;;;;;;;;18.68;84.69;100740.88;5072746;28;19920;-51
2021/07/25 00:34:38;;;;;;;;;;;;;;;18.64;84.85;100738.66;5070887;28;19924;-55
2021/07/25 00:37:05;;;;;;;;;;;;;;;18.66;84.81;100729.50;5070040;28;20378;-54
2021/07/25 00:39:32;;;;;;;;;;;;;;;18.67;84.72;100739.19;5071326;28;19920;-52
2021/07/25 00:41:58;;;;;;;;;;;;;;;18.63;84.87;100737.00;5072552;28;19959;-55
2021/07/25 00:44:25;;;;;;;;;;;;;;;18.61;85.00;100739.81;5072132;28;19950;-55
2021/07/25 00:46:55;;;;;;;;;;;;;;;18.57;84.95;100743.78;5072280;28;19921;-55
2021/07/25 00:49:22;;;;;;;;;;;;;;;18.62;84.92;100744.13;5071472;28;19959;-55
2021/07/25 00:51:48;;;;;;;;;;;;;;;18.55;85.13;100743.91;5069681;28;19920;-55
2021/07/25 00:54:15;;;;;;;;;;;;;;;18.59;85.18;100739.13;5071584;28;19920;-51
2021/07/25 00:56:42;;;;;;;;;;;;;;;18.54;85.29;100741.41;5088144;28;19969;-50
2021/07/25 00:59:09;;;;;;;;;;;;;;;18.54;85.57;100734.28;5072399;28;20390;-52
2021/07/25 01:01:35;;;;;;;;;;;;;;;18.53;85.47;100731.78;5071375;28;20282;-55
2021/07/25 01:04:17;;;;;;;;;;;;;;;18.43;85.75;100726.50;5073290;28;20371;-55
2021/07/25 01:06:47;;;;;;;;;;;;;;;18.45;85.83;100723.69;5076603;28;20270;-54
2021/07/25 01:09:17;;;;;;;;;;;;;;;18.42;85.49;100720.38;5076514;28;19926;-53
2021/07/25 01:11:47;;;;;;;;;;;;;;;18.42;85.64;100708.88;5072454;28;19973;-55
2021/07/25 01:14:17;;;;;;;;;;;;;;;18.43;85.24;100710.53;5074829;28;20311;-52
2021/07/25 01:16:44;;;;;;;;;;;;;;;18.42;85.38;100699.06;5075169;28;20379;-55
2021/07/25 01:19:11;;;;;;;;;;;;;;;18.42;85.85;100703.56;5076356;28;19925;-53
2021/07/25 01:21:37;;;;;;;;;;;;;;;18.47;85.43;100701.25;5075292;28;19920;-55
2021/07/25 01:24:04;;;;;;;;;;;;;;;18.39;85.77;100701.19;5073438;28;20371;-53
2021/07/25 01:26:31;;;;;;;;;;;;;;;18.35;85.62;100699.81;5073508;28;19926;-55
2021/07/25 01:28:59;;;;;;;;;;;;;;;18.30;85.98;100700.31;5076127;28;19950;-54
2021/07/25 01:31:35;;;;;;;;;;;;;;;18.31;85.89;100703.78;5076134;28;19924;-53
2021/07/25 01:34:02;;;;;;;;;;;;;;;18.31;86.31;100712.63;5074787;28;19920;-50
2021/07/25 01:36:29;;;;;;;;;;;;;;;18.29;86.05;100701.28;5074709;28;20011;-52
2021/07/25 01:38:56;;;;;;;;;;;;;;;18.27;86.53;100705.94;5074814;28;19920;-51
2021/07/25 01:41:22;;;;;;;;;;;;;;;18.20;87.30;100708.38;5073331;28;20371;-51
2021/07/25 01:43:50;;;;;;;;;;;;;;;18.20;87.16;100711.03;5072924;28;19924;-51
2021/07/25 01:46:16;;;;;;;;;;;;;;;18.17;87.47;100713.97;5073206;28;19920;-54
2021/07/25 01:48:43;;;;;;;;;;;;;;;18.21;86.88;100711.84;5063749;28;20007;-52
2021/07/25 01:51:11;;;;;;;;;;;;;;;18.18;87.02;100718.31;5053399;28;20370;-51
2021/07/25 01:53:37;;;;;;;;;;;;;;;18.20;87.01;100721.69;5043656;28;19920;-53
2021/07/25 01:56:04;;;;;;;;;;;;;;;18.23;87.10;100723.22;5053097;28;20027;-51
2021/07/25 01:58:31;;;;;;;;;;;;;;;18.19;87.77;100720.00;5054877;28;19925;-53
2021/07/25 02:00:57;;;;;;;;;;;;;;;18.18;87.78;100720.16;5057557;28;20283;-55
2021/07/25 02:03:24;;;;;;;;;;;;;;;18.16;87.48;100720.31;5052168;28;19927;-52
2021/07/25 02:05:51;;;;;;;;;;;;;;;18.16;87.36;100716.81;5034598;28;20379;-54
2021/07/25 02:08:18;;;;;;;;;;;;;;;18.12;87.28;100715.44;5057840;28;19921;-55
2021/07/25 02:10:45;;;;;;;;;;;;;;;18.12;87.46;100723.41;5054788;28;19928;-52
2021/07/25 02:13:15;;;;;;;;;;;;;;;18.17;87.44;100715.81;5056784;28;19967;-53
2021/07/25 02:15:42;;;;;;;;;;;;;;;18.13;87.65;100711.78;5058744;28;20260;-51
2021/07/25 02:18:09;;;;;;;;;;;;;;;18.10;87.77;100714.75;5050534;28;20383;-53
2021/07/25 02:20:36;;;;;;;;;;;;;;;18.12;87.71;100715.44;5052122;28;19955;-56
2021/07/25 02:23:03;;;;;;;;;;;;;;;18.10;87.67;100709.44;5061854;28;19978;-55
2021/07/25 02:25:29;;;;;;;;;;;;;;;18.12;87.61;100713.63;5054781;28;20326;-54
2021/07/25 02:27:56;;;;;;;;;;;;;;;18.12;87.61;100713.63;5053007;28;19920;-53
2021/07/25 02:30:23;;;;;;;;;;;;;;;18.16;87.18;100709.66;5052613;28;20375;-55
2021/07/25 02:32:49;;;;;;;;;;;;;;;18.12;86.88;100716.28;5049172;28;20375;-56
2021/07/25 02:35:16;;;;;;;;;;;;;;;18.01;88.04;100712.03;5053348;28;19928;-54
2021/07/25 02:37:43;;;;;;;;;;;;;;;18.05;87.64;100701.91;5054574;28;20334;-55
2021/07/25 02:40:10;;;;;;;;;;;;;;;18.03;87.78;100712.69;5054112;28;19966;-55
2021/07/25 02:42:36;;;;;;;;;;;;;;;18.00;88.13;100706.88;5054281;28;19920;-52
2021/07/25 02:45:03;;;;;;;;;;;;;;;17.92;87.55;100702.28;5052848;28;19921;-50
2021/07/25 02:47:30;;;;;;;;;;;;;;;17.89;87.83;100707.88;5054193;28;19920;-52
2021/07/25 02:49:56;;;;;;;;;;;;;;;17.86;88.15;100702.84;5053618;28;19989;-52
2021/07/25 02:52:23;;;;;;;;;;;;;;;17.88;87.81;100706.22;5051124;28;20042;-53
2021/07/25 02:54:51;;;;;;;;;;;;;;;17.81;87.70;100705.16;5052103;28;19920;-55
2021/07/25 02:57:17;;;;;;;;;;;;;;;17.88;87.19;100698.22;5053764;28;19921;-55
2021/07/25 02:59:44;;;;;;;;;;;;;;;17.95;86.77;100696.66;5052591;28;19943;-55
2021/07/25 03:02:11;;;;;;;;;;;;;;;17.94;86.47;100699.47;5053747;28;20019;-53
2021/07/25 03:04:41;;;;;;;;;;;;;;;17.83;86.90;100692.53;5053704;28;19921;-54
2021/07/25 03:07:07;;;;;;;;;;;;;;;17.80;87.46;100688.34;5052481;28;19924;-54
2021/07/25 03:09:34;;;;;;;;;;;;;;;17.79;87.11;100693.81;5053112;28;20346;-52
2021/07/25 03:12:01;;;;;;;;;;;;;;;17.74;86.97;100689.78;5050207;28;19974;-51
2021/07/25 03:14:27;;;;;;;;;;;;;;;17.69;87.13;100691.22;5051007;28;19921;-53
2021/07/25 03:16:54;;;;;;;;;;;;;;;17.60;87.36;100694.78;5053431;28;20338;-55
2021/07/25 03:19:21;;;;;;;;;;;;;;;17.55;87.77;100695.22;5053617;28;19987;-55
2021/07/25 03:21:47;;;;;;;;;;;;;;;17.53;88.18;100697.19;5051960;28;19959;-55
2021/07/25 03:24:14;;;;;;;;;;;;;;;17.55;88.07;100695.22;5050471;28;19928;-53
2021/07/25 03:26:41;;;;;;;;;;;;;;;17.53;88.08;100697.19;5052255;28;20350;-53
2021/07/25 03:29:07;;;;;;;;;;;;;;;17.54;88.34;100696.22;5053355;28;19974;-52
2021/07/25 03:31:34;;;;;;;;;;;;;;;17.49;88.65;100687.84;5053282;28;19928;-52
2021/07/25 03:34:01;;;;;;;;;;;;;;;17.50;88.69;100686.88;5045462;28;20003;-52
2021/07/25 03:36:28;;;;;;;;;;;;;;;17.55;88.34;100690.75;5053160;28;19921;-54
2021/07/25 03:38:55;;;;;;;;;;;;;;;17.52;88.44;100688.38;5052753;28;19975;-54
2021/07/25 03:41:21;;;;;;;;;;;;;;;17.52;88.76;100690.19;5053209;28;19966;-55
2021/07/25 03:43:48;;;;;;;;;;;;;;;17.49;89.17;100690.50;5051422;28;19928;-52
2021/07/25 03:46:15;;;;;;;;;;;;;;;17.50;89.22;100692.19;5051875;28;20934;-55
2021/07/25 03:48:42;;;;;;;;;;;;;;;17.50;88.95;100697.50;5052290;28;19925;-55
2021/07/25 03:51:09;;;;;;;;;;;;;;;17.48;89.44;100695.00;5051425;28;19921;-54
2021/07/25 03:53:35;;;;;;;;;;;;;;;17.45;89.44;100692.63;5057371;28;19978;-53
2021/07/25 03:56:02;;;;;;;;;;;;;;;17.42;89.48;100700.88;5050391;28;19971;-54
2021/07/25 03:58:29;;;;;;;;;;;;;;;17.42;89.91;100706.19;5052795;28;19931;-51
2021/07/25 04:00:55;;;;;;;;;;;;;;;17.43;89.42;100710.53;5052800;28;19920;-53
2021/07/25 04:03:22;;;;;;;;;;;;;;;17.42;89.87;100703.53;5051757;28;20446;-52
2021/07/25 04:05:49;;;;;;;;;;;;;;;17.38;89.92;100712.78;5052567;28;19928;-55
2021/07/25 04:08:16;;;;;;;;;;;;;;;17.35;89.35;100705.94;5052923;28;19966;-49
2021/07/25 04:10:43;;;;;;;;;;;;;;;17.38;89.12;100704.81;5051268;28;19990;-52
2021/07/25 04:13:10;;;;;;;;;;;;;;;17.35;89.43;100702.47;5052317;28;19944;-55
2021/07/25 04:15:40;;;;;;;;;;;;;;;17.32;89.13;100705.44;5052629;28;20299;-53
2021/07/25 04:18:07;;;;;;;;;;;;;;;17.44;88.94;100698.06;5052356;28;20019;-52
2021/07/25 04:20:34;;;;;;;;;;;;;;;17.40;89.14;100703.69;5052543;28;20349;-53
2021/07/25 04:23:03;;;;;;;;;;;;;;;17.34;89.25;100698.13;5051549;28;20414;-54
2021/07/25 04:25:31;;;;;;;;;;;;;;;17.37;89.34;100698.69;5052361;28;19951;-50
2021/07/25 04:27:58;;;;;;;;;;;;;;;17.36;88.82;100707.63;5051067;28;19921;-49
2021/07/25 04:30:25;;;;;;;;;;;;;;;17.29;89.08;100703.03;5052212;28;19974;-49
2021/07/25 04:32:52;;;;;;;;;;;;;;;17.35;88.89;100700.63;5051000;28;20434;-50
2021/07/25 04:35:19;;;;;;;;;;;;;;;17.38;88.61;100695.06;5052104;28;19925;-51
2021/07/25 04:37:51;;;;;;;;;;;;;;;17.32;88.41;100700.94;5052485;28;20351;-51
2021/07/25 04:40:18;;;;;;;;;;;;;;;17.29;88.88;100708.34;5051631;28;19928;-50
2021/07/25 04:42:52;;;;;;;;;;;;;;;17.27;89.58;100705.03;5050844;28;19960;-49
2021/07/25 04:45:42;;;;;;;;;;;;;;;17.31;90.01;100709.88;5051962;28;19931;-55
2021/07/25 04:48:12;;;;;;;;;;;;;;;17.39;90.28;100704.66;5043160;28;19927;-55
2021/07/25 04:50:40;;;;;;;;;;;;;;;17.35;90.66;100705.94;5044043;28;19921;-55
2021/07/25 04:53:06;;;;;;;;;;;;;;;17.34;90.88;100709.63;5050694;28;19920;-52
2021/07/25 04:55:34;;;;;;;;;;;;;;;17.31;91.52;100714.38;5050526;28;19929;-52
2021/07/25 04:58:04;;;;;;;;;;;;;;;17.35;91.41;100724.56;5051660;28;20470;-55
2021/07/25 05:00:31;;;;;;;;;;;;;;;17.38;91.00;100718.97;5050316;28;19921;-52
2021/07/25 05:03:00;;;;;;;;;;;;;;;17.41;91.20;100731.13;5054378;28;19928;-52
2021/07/25 05:05:28;;;;;;;;;;;;;;;17.51;90.89;100733.72;5033058;28;19968;-53
2021/07/25 05:07:54;;;;;;;;;;;;;;;17.49;90.92;100731.22;5047968;28;19970;-52
2021/07/25 05:10:21;;;;;;;;;;;;;;;17.51;90.69;100725.75;5049261;28;20445;-52
2021/07/25 05:12:49;;;;;;;;;;;;;;;17.53;90.15;100723.78;5044089;28;19920;-51
2021/07/25 05:15:20;;;;;;;;;;;;;;;17.55;89.62;100732.44;5051749;28;20372;-51
2021/07/25 05:17:47;;;;;;;;;;;;;;;17.57;89.60;100735.78;5051649;28;19925;-51
2021/07/25 05:20:16;;;;;;;;;;;;;;;17.58;89.60;100737.47;5051828;28;19924;-51
2021/07/25 05:22:53;;;;;;;;;;;;;;;17.61;89.01;100742.47;5051563;28;19925;-54
2021/07/25 05:25:20;;;;;;;;;;;;;;;17.69;89.07;100741.75;5050599;28;19920;-52
2021/07/25 05:27:48;;;;;;;;;;;;;;;17.70;88.87;100746.09;5048605;28;19979;-52
2021/07/25 05:30:15;;;;;;;;;;;;;;;17.78;88.04;100750.63;5051402;28;19952;-52
2021/07/25 05:32:42;;;;;;;;;;;;;;;17.72;88.00;100746.75;5050015;28;19921;-52
2021/07/25 05:35:09;;;;;;;;;;;;;;;17.75;87.65;100749.13;5058853;28;19920;-53
2021/07/25 05:37:36;;;;;;;;;;;;;;;17.79;87.58;100744.34;5051245;28;20272;-55
2021/07/25 05:40:03;;;;;;;;;;;;;;;17.90;87.32;100755.63;5044147;28;20411;-55
2021/07/25 05:42:30;;;;;;;;;;;;;;;17.97;87.33;100753.22;5047263;28;19982;-55
2021/07/25 05:44:56;;;;;;;;;;;;;;;18.07;86.33;100751.31;5049157;28;19931;-52
2021/07/25 05:47:23;;;;;;;;;;;;;;;18.13;86.48;100741.88;5067320;28;19931;-50
2021/07/25 05:49:50;;;;;;;;;;;;;;;18.20;86.22;100750.09;5051821;28;20287;-49
2021/07/25 05:52:17;;;;;;;;;;;;;;;18.28;85.58;100736.88;5054441;28;19920;-55
2021/07/25 05:54:44;;;;;;;;;;;;;;;18.39;85.89;100735.78;5055670;28;19958;-50
2021/07/25 05:57:10;;;;;;;;;;;;;;;18.52;86.41;100751.41;5055806;28;19920;-52
2021/07/25 05:59:37;;;;;;;;;;;;;;;18.62;84.34;100744.13;5052927;28;20019;-52
2021/07/25 06:02:04;;;;;;;;;;;;;;;18.75;84.23;100741.91;5052669;28;19924;-53
2021/07/25 06:04:30;;;;;;;;;;;;;;;18.83;83.99;100738.47;5055696;28;19927;-51
2021/07/25 06:06:57;;;;;;;;;;;;;;;18.92;83.45;100740.22;5055493;28;19943;-53
2021/07/25 06:09:24;;;;;;;;;;;;;;;19.01;81.94;100741.09;5055342;28;19921;-53
2021/07/25 06:11:51;;;;;;;;;;;;;;;19.12;81.63;100742.66;5052050;28;19925;-54
2021/07/25 06:14:17;;;;;;;;;;;;;;;19.19;81.06;100734.88;5052950;28;19986;-54
2021/07/25 06:16:44;;;;;;;;;;;;;;;19.27;80.90;100742.91;5055166;28;19975;-52
2021/07/25 06:19:11;;;;;;;;;;;;;;;19.35;80.19;100734.94;5052467;28;19974;-56
2021/07/25 06:21:37;;;;;;;;;;;;;;;19.37;79.75;100738.31;5052484;28;19971;-56
2021/07/25 06:24:04;;;;;;;;;;;;;;;19.45;78.73;100736.66;5054104;28;19995;-56
2021/07/25 06:26:33;;;;;;;;;;;;;;;19.50;79.00;100732.50;5054694;28;19921;-54
2021/07/25 06:28:59;;;;;;;;;;;;;;;19.57;79.13;100732.69;5051950;28;19921;-48
2021/07/25 06:31:26;;;;;;;;;;;;;;;19.63;78.59;100733.88;5053324;28;19927;-48
2021/07/25 06:33:53;;;;;;;;;;;;;;;19.68;78.59;100728.91;5051831;28;20391;-53
2021/07/25 06:36:20;;;;;;;;;;;;;;;19.73;78.50;100730.06;5050881;28;19921;-52
2021/07/25 06:38:47;;;;;;;;;;;;;;;19.81;77.96;100731.97;5054526;28;19927;-53
2021/07/25 06:41:13;;;;;;;;;;;;;;;19.85;77.52;100738.66;5053858;28;20509;-51
2021/07/25 06:43:40;;;;;;;;;;;;;;;19.90;77.44;100735.47;5053206;28;20322;-53
2021/07/25 06:46:09;;;;;;;;;;;;;;;20.09;77.24;100735.16;5051819;28;20414;-54
2021/07/25 06:48:37;;;;;;;;;;;;;;;20.17;77.48;100731.69;5050475;28;19963;-52
2021/07/25 06:51:03;;;;;;;;;;;;;;;20.30;76.82;100735.69;5053662;28;19967;-53
2021/07/25 06:53:31;;;;;;;;;;;;;;;20.39;76.23;100737.38;5054298;28;20011;-51
2021/07/25 06:56:00;;;;;;;;;;;;;;;20.57;76.02;100729.16;5051442;28;20307;-50
2021/07/25 06:58:27;;;;;;;;;;;;;;;20.66;75.35;100738.84;5052270;28;20315;-52
2021/07/25 07:00:54;;;;;;;;;;;;;;;20.83;74.48;100736.19;5054501;28;19924;-52
2021/07/25 07:03:21;;;;;;;;;;;;;;;20.97;74.84;100738.16;5051635;28;20425;-51
2021/07/25 07:05:48;;;;;;;;;;;;;;;21.09;73.72;100741.28;5051047;28;19952;-56
2021/07/25 07:08:14;;;;;;;;;;;;;;;21.25;72.04;100745.75;5053899;28;19921;-55
2021/07/25 07:10:42;;;;;;;;;;;;;;;21.33;71.71;100736.88;5069510;28;19921;-54
2021/07/25 07:13:10;;;;;;;;;;;;;;;21.48;71.95;100737.00;5054193;28;19921;-54
2021/07/25 07:15:38;;;;;;;;;;;;;;;21.65;71.08;100735.09;5052648;28;19921;-53
2021/07/25 07:18:05;;;;;;;;;;;;;;;21.82;70.62;100734.00;5063665;28;20367;-53
2021/07/25 07:20:32;;;;;;;;;;;;;;;22.02;69.78;100737.06;5054094;28;19920;-53
2021/07/25 07:22:58;;;;;;;;;;;;;;;22.17;68.88;100738.94;5051584;28;19925;-53
2021/07/25 07:25:32;;;;;;;;;;;;;;;22.28;68.20;100735.84;5050589;28;19921;-51
2021/07/25 07:27:59;;;;;;;;;;;;;;;22.36;67.49;100737.66;5066754;28;19921;-53
2021/07/25 07:30:25;;;;;;;;;;;;;;;22.51;67.85;100735.00;5053770;28;19920;-53
2021/07/25 07:32:52;;;;;;;;;;;;;;;22.66;66.56;100738.56;5064647;28;19978;-52
2021/07/25 07:35:25;;;;;;;;;;;;;;;22.84;66.39;100743.59;5050809;28;19921;-54
2021/07/25 07:37:51;;;;;;;;;;;;;;;23.02;65.10;100743.22;5053965;28;19920;-54
2021/07/25 07:40:18;;;;;;;;;;;;;;;23.09;65.60;100746.00;5053634;28;20418;-52
2021/07/25 07:42:45;;;;;;;;;;;;;;;23.27;65.00;100742.97;5052381;28;19924;-53
2021/07/25 07:45:12;;;;;;;;;;;;;;;23.32;64.38;100743.25;5053455;28;19974;-54
2021/07/25 07:47:38;;;;;;;;;;;;;;;23.45;63.45;100737.19;5052319;28;20390;-54
2021/07/25 07:50:05;;;;;;;;;;;;;;;23.63;63.76;100740.31;5053392;28;19921;-52
2021/07/25 07:52:32;;;;;;;;;;;;;;;23.83;63.82;100745.09;5053451;28;19921;-53
2021/07/25 07:54:59;;;;;;;;;;;;;;;23.99;62.24;100749.41;5053596;28;19956;-54
2021/07/25 07:57:25;;;;;;;;;;;;;;;24.21;61.70;100744.88;5050873;28;19925;-54
2021/07/25 07:59:53;;;;;;;;;;;;;;;24.41;60.30;100745.06;5050235;28;19925;-54
2021/07/25 08:02:19;;;;;;;;;;;;;;;24.53;60.04;100750.75;5053210;28;20474;-55
2021/07/25 08:04:46;;;;;;;;;;;;;;;24.41;59.70;100749.63;5052133;28;19921;-54
2021/07/25 08:07:13;;;;;;;;;;;;;;;24.46;59.06;100749.88;5050343;28;20430;-53
2021/07/25 08:09:39;;;;;;;;;;;;;;;24.52;59.49;100756.31;5051333;28;19955;-54
2021/07/25 08:12:06;;;;;;;;;;;;;;;24.67;57.84;100757.09;5050127;28;19924;-52
2021/07/25 08:14:33;;;;;;;;;;;;;;;24.88;59.11;100747.31;5049119;28;19921;-56
2021/07/25 08:17:00;;;;;;;;;;;;;;;25.01;57.24;100757.31;5052122;28;19920;-55
2021/07/25 08:19:28;;;;;;;;;;;;;;;25.24;57.22;100757.03;5053044;28;20015;-56
2021/07/25 08:21:55;;;;;;;;;;;;;;;25.35;56.22;100753.00;5052779;28;19932;-56
2021/07/25 08:24:21;;;;;;;;;;;;;;;25.50;56.56;100760.91;5068264;28;19921;-54
2021/07/25 08:26:48;;;;;;;;;;;;;;;25.65;56.08;100757.03;5052376;28;19921;-55
2021/07/25 08:29:14;;;;;;;;;;;;;;;25.69;56.07;100754.78;5049043;28;19948;-56
2021/07/25 08:31:41;;;;;;;;;;;;;;;26.00;55.34;100764.19;5048370;28;20383;-55
2021/07/25 08:34:08;;;;;;;;;;;;;;;26.31;56.57;100762.78;5051377;28;19921;-57
2021/07/25 08:36:35;;;;;;;;;;;;;;;26.29;54.49;100771.09;5049825;28;19931;-56
2021/07/25 08:39:01;;;;;;;;;;;;;;;26.20;54.09;100766.09;5049318;28;19925;-56
2021/07/25 08:41:34;;;;;;;;;;;;;;;26.15;54.26;100761.31;5051593;28;19921;-56
2021/07/25 08:44:21;;;;;;;;;;;;;;;26.04;54.34;100765.47;5052659;28;19967;-56
2021/07/25 08:46:47;;;;;;;;;;;;;;;26.03;55.28;100760.25;5052991;28;19921;-55
2021/07/25 08:49:16;;;;;;;;;;;;;;;26.15;55.26;100756.78;5067827;28;20402;-56
2021/07/25 08:51:42;;;;;;;;;;;;;;;26.22;54.80;100764.03;5052146;28;19920;-53
2021/07/25 08:54:09;;;;;;;;;;;;;;;26.34;55.90;100764.25;5067269;28;19951;-52
2021/07/25 08:56:36;;;;;;;;;;;;;;;25.97;56.09;100760.03;5064045;28;20284;-53
2021/07/25 08:59:04;;;;;;;;;;;;;;;26.34;55.28;100769.66;5047918;28;19921;-54
2021/07/25 09:01:37;;;;;;;;;;;;;;;26.56;53.83;100764.88;5052273;28;19921;-53
2021/07/25 09:04:05;;;;;;;;;;;;;;;26.31;53.48;100760.94;5052434;28;19927;-52
2021/07/25 09:06:35;;;;;;;;;;;;;;;26.62;54.25;100762.19;5052386;28;19924;-53
2021/07/25 09:09:02;;;;;;;;;;;;;;;26.38;54.60;100757.41;5052200;28;19921;-53
2021/07/25 09:11:28;;;;;;;;;;;;;;;26.75;54.64;100765.94;5051736;28;20593;-53
2021/07/25 09:13:58;;;;;;;;;;;;;;;27.03;53.17;100771.06;5047800;28;19932;-54
2021/07/25 09:16:28;;;;;;;;;;;;;;;27.11;52.60;100770.03;5050800;28;19920;-56
2021/07/25 09:18:56;;;;;;;;;;;;;;;27.05;52.73;100758.22;5067748;28;19931;-56
2021/07/25 09:21:35;;;;;;;;;;;;;;;26.73;52.98;100760.75;5064681;28;20007;-55
2021/07/25 09:24:18;;;;;;;;;;;;;;;27.08;52.24;100762.38;5049791;28;19921;-56
2021/07/25 09:26:59;;;;;;;;;;;;;;;27.26;52.26;100761.69;5068753;28;19931;-57
2021/07/25 09:29:27;;;;;;;;;;;;;;;27.56;52.45;100766.59;5053828;28;19924;-52
2021/07/25 09:32:09;;;;;;;;;;;;;;;27.81;51.04;100761.25;5070609;28;19928;-53
2021/07/25 09:34:40;;;;;;;;;;;;;;;27.76;50.69;100764.63;5056006;28;19925;-56
2021/07/25 09:37:09;;;;;;;;;;;;;;;28.04;49.97;100762.63;5055844;28;20287;-55
2021/07/25 09:39:40;;;;;;;;;;;;;;;27.72;49.44;100763.41;5056031;28;19925;-55
2021/07/25 09:42:07;;;;;;;;;;;;;;;27.96;48.12;100761.81;5055831;28;19974;-55
2021/07/25 09:44:47;;;;;;;;;;;;;;;27.95;48.35;100762.84;5055902;28;20379;-56
2021/07/25 09:47:26;;;;;;;;;;;;;;;28.24;49.89;100766.00;5055811;28;19920;-56
2021/07/25 09:49:53;;;;;;;;;;;;;;;28.67;48.47;100753.63;5052307;28;19943;-55
2021/07/25 09:52:27;;;;;;;;;;;;;;;28.58;46.47;100754.91;5067206;28;20012;-56
2021/07/25 09:54:56;;;;;;;;;;;;;;;28.76;47.05;100752.28;5055316;28;19931;-57
2021/07/25 09:57:26;;;;;;;;;;;;;;;28.89;45.15;100759.47;5054319;28;20275;-56
2021/07/25 09:59:53;;;;;;;;;;;;;;;29.05;46.09;100763.44;5069140;28;19931;-57
2021/07/25 10:02:33;;;;;;;;;;;;;;;29.29;45.78;100755.50;5050999;28;19925;-53
2021/07/25 10:05:14;;;;;;;;;;;;;;;29.46;43.37;100753.84;5054088;28;20403;-54
2021/07/25 10:07:41;;;;;;;;;;;;;;;29.54;46.23;100749.16;5055795;28;19928;-54
2021/07/25 10:10:09;;;;;;;;;;;;;;;29.76;44.86;100758.41;5055682;28;19943;-56
2021/07/25 10:12:39;;;;;;;;;;;;;;;29.73;41.94;100753.47;5055395;28;19951;-54
2021/07/25 10:15:06;;;;;;;;;;;;;;;30.06;43.42;100756.78;5055364;28;19921;-53
2021/07/25 10:17:34;;;;;;;;;;;;;;;30.45;43.00;100751.81;5065741;28;19921;-53
2021/07/25 10:20:02;;;;;;;;;;;;;;;30.64;43.30;100750.66;5050094;28;20299;-55
2021/07/25 10:22:30;;;;;;;;;;;;;;;30.92;41.83;100748.25;5054995;28;19931;-56
2021/07/25 10:24:58;;;;;;;;;;;;;;;30.78;41.13;100750.41;5055012;28;20375;-54
2021/07/25 10:27:25;;;;;;;;;;;;;;;30.41;42.06;100751.44;5055025;28;19921;-56
2021/07/25 10:29:55;;;;;;;;;;;;;;;30.71;40.98;100745.09;5070261;28;20295;-56
2021/07/25 10:32:22;;;;;;;;;;;;;;;31.21;41.12;100748.34;5055232;28;20014;-56
2021/07/25 10:34:49;;;;;;;;;;;;;;;31.15;40.03;100752.88;5070425;28;19921;-59
2021/07/25 10:37:16;;;;;;;;;;;;;;;31.40;39.67;100749.84;5054167;28;19925;-55
2021/07/25 10:39:43;;;;;;;;;;;;;;;31.49;39.63;100744.84;5054823;28;19921;-56
2021/07/25 10:42:11;;;;;;;;;;;;;;;31.34;40.38;100743.47;5054945;28;19920;-56
2021/07/25 10:44:37;;;;;;;;;;;;;;;31.40;40.90;100749.84;5070206;28;19924;-55
2021/07/25 10:47:23;;;;;;;;;;;;;;;31.46;40.25;100740.72;5068993;28;19925;-57
2021/07/25 10:50:10;;;;;;;;;;;;;;;31.65;39.60;100746.81;5050553;28;19967;-57
2021/07/25 10:52:54;;;;;;;;;;;;;;;31.44;38.96;100742.03;5052018;28;19920;-56
2021/07/25 10:55:41;;;;;;;;;;;;;;;31.52;38.67;100744.34;5054379;28;19920;-56
2021/07/25 10:58:15;;;;;;;;;;;;;;;31.31;38.91;100748.59;5069736;28;19921;-56
2021/07/25 11:00:41;;;;;;;;;;;;;;;31.27;39.10;100750.13;5054378;28;19921;-56
2021/07/25 11:03:08;;;;;;;;;;;;;;;30.88;39.50;100749.81;5054310;28;19920;-56
2021/07/25 11:05:56;;;;;;;;;;;;;;;31.08;39.52;100744.84;5053993;28;20410;-56
2021/07/25 11:08:32;;;;;;;;;;;;;;;30.62;41.28;100735.66;5043675;28;19921;-56
2021/07/25 11:10:59;;;;;;;;;;;;;;;30.70;39.90;100743.44;5067633;28;20395;-57
2021/07/25 11:13:38;;;;;;;;;;;;;;;30.93;39.35;100744.50;5054219;28;20340;-57
2021/07/25 11:16:27;;;;;;;;;;;;;;;31.12;38.89;100740.59;5054068;28;19928;-56
2021/07/25 11:18:56;;;;;;;;;;;;;;;31.66;39.48;100740.31;5049337;28;19924;-57
2021/07/25 11:21:34;;;;;;;;;;;;;;;31.69;38.98;100739.03;5051896;28;20380;-57
2021/07/25 11:24:12;;;;;;;;;;;;;;;31.30;38.17;100736.06;5068944;28;19928;-57
2021/07/25 11:26:39;;;;;;;;;;;;;;;31.32;38.43;100736.66;5052954;28;20395;-57
2021/07/25 11:29:07;;;;;;;;;;;;;;;31.79;38.12;100727.50;5053580;28;19924;-57
2021/07/25 11:31:34;;;;;;;;;;;;;;;31.30;38.15;100741.50;5069119;28;19924;-57
2021/07/25 11:34:01;;;;;;;;;;;;;;;31.37;38.55;100736.72;5052384;28;19920;-57
2021/07/25 11:36:28;;;;;;;;;;;;;;;31.17;38.09;100732.56;5052309;28;20440;-57
2021/07/25 11:39:01;;;;;;;;;;;;;;;30.87;37.60;100734.56;5053561;28;19920;-56
2021/07/25 11:41:28;;;;;;;;;;;;;;;30.70;38.54;100732.59;5034734;28;19924;-56
2021/07/25 11:43:59;;;;;;;;;;;;;;;30.73;39.89;100740.25;5065544;28;20355;-57
2021/07/25 11:46:28;;;;;;;;;;;;;;;30.58;39.97;100735.31;5051422;28;19920;-56
2021/07/25 11:49:06;;;;;;;;;;;;;;;30.59;41.28;100734.25;5052517;28;19921;-56
2021/07/25 11:51:33;;;;;;;;;;;;;;;30.20;40.62;100735.72;5053190;28;19966;-57
2021/07/25 11:53:59;;;;;;;;;;;;;;;29.95;41.69;100734.84;5053170;28;19928;-56
2021/07/25 11:56:26;;;;;;;;;;;;;;;30.27;41.83;100731.00;5053366;28;19924;-56
2021/07/25 11:58:59;;;;;;;;;;;;;;;30.90;38.70;100734.94;5053145;28;19950;-57
2021/07/25 12:01:26;;;;;;;;;;;;;;;31.19;39.20;100730.41;5053135;28;19924;-57
2021/07/25 12:03:53;;;;;;;;;;;;;;;31.34;38.47;100731.78;5052987;28;19925;-57
2021/07/25 12:06:19;;;;;;;;;;;;;;;30.89;38.70;100733.28;5051275;28;19921;-56
2021/07/25 12:09:05;;;;;;;;;;;;;;;31.08;38.28;100731.28;5049224;28;19932;-56
2021/07/25 12:11:33;;;;;;;;;;;;;;;31.12;38.08;100731.63;5066632;28;19921;-57
2021/07/25 12:14:00;;;;;;;;;;;;;;;31.38;37.89;100732.97;5052993;28;20286;-57
2021/07/25 12:16:46;;;;;;;;;;;;;;;31.32;37.54;100725.78;5051528;28;19921;-57
2021/07/25 12:19:14;;;;;;;;;;;;;;;30.57;37.79;100728.25;5051393;28;19955;-56
2021/07/25 12:21:41;;;;;;;;;;;;;;;30.69;37.81;100733.66;5053010;28;19927;-56
2021/07/25 12:24:26;;;;;;;;;;;;;;;30.15;39.12;100733.72;5068077;28;19952;-56
2021/07/25 12:26:53;;;;;;;;;;;;;;;30.21;38.76;100735.47;5052724;28;19928;-55
2021/07/25 12:29:35;;;;;;;;;;;;;;;30.06;40.08;100738.63;5068219;28;19928;-56
2021/07/25 12:32:20;;;;;;;;;;;;;;;30.33;39.98;100735.50;5052538;28;19921;-56
2021/07/25 12:34:48;;;;;;;;;;;;;;;30.26;40.55;100742.94;5052701;28;19936;-57
2021/07/25 12:37:24;;;;;;;;;;;;;;;30.25;39.34;100736.66;5052769;28;19920;-57
2021/07/25 12:40:09;;;;;;;;;;;;;;;30.83;40.22;100732.34;5049071;28;19928;-57
2021/07/25 12:42:47;;;;;;;;;;;;;;;30.59;40.48;100734.25;5050120;28;19927;-57